createdAt,value
2023-04-01T00:02:27.377Z,2.72
2023-04-01T00:05:00.331Z,1.92
2023-04-01T00:07:31.037Z,2.15
2023-04-01T00:10:01.374Z,2.95
2023-04-01T00:12:31.778Z,2.92
2023-04-01T00:15:02.174Z,1.33
2023-04-01T00:17:32.803Z,1.30
2023-04-01T00:20:06.574Z,0.85
2023-04-01T00:22:36.926Z,1.67
2023-04-01T00:25:07.675Z,1.77
2023-04-01T00:27:38.186Z,1.02
2023-04-01T00:30:09.197Z,1.60
2023-04-01T00:32:39.616Z,1.20
2023-04-01T00:35:13.712Z,1.50
2023-04-01T00:37:44.186Z,1.63
2023-04-01T00:40:26.885Z,0.88
2023-04-01T00:42:57.242Z,1.52
2023-04-01T00:45:33.239Z,1.10
2023-04-01T00:48:06.551Z,2.08
2023-04-01T00:50:40.364Z,1.85
2023-04-01T00:53:11.892Z,2.35
2023-04-01T00:55:44.023Z,2.30
2023-04-01T00:58:18.515Z,2.45
2023-04-01T01:00:50.159Z,2.13
2023-04-01T01:03:20.692Z,2.00
2023-04-01T01:06:08.884Z,2.17
2023-04-01T01:08:48.101Z,2.20
2023-04-01T01:11:19.637Z,1.80
2023-04-01T01:13:58.122Z,2.08
2023-04-01T01:16:30.644Z,3.17
2023-04-01T01:19:06.261Z,2.03
2023-04-01T01:21:45.797Z,2.42
2023-04-01T01:24:21.908Z,2.42
2023-04-01T01:26:55.805Z,2.35
2023-04-01T01:29:44.773Z,2.80
2023-04-01T01:32:23.044Z,2.03
2023-04-01T01:34:56.436Z,3.20
2023-04-01T01:37:30.718Z,2.92
2023-04-01T01:40:01.763Z,2.08
2023-04-01T01:42:33.517Z,2.05
2023-04-01T01:45:04.836Z,1.23
2023-04-01T01:47:35.952Z,2.38
2023-04-01T01:50:06.854Z,1.83
2023-04-01T01:52:39.842Z,2.33
2023-04-01T01:55:24.981Z,2.85
2023-04-01T01:57:55.496Z,1.48
2023-04-01T02:00:26.345Z,2.28
2023-04-01T02:02:57.566Z,1.55
2023-04-01T02:05:30.309Z,1.80
2023-04-01T02:08:05.827Z,2.08
2023-04-01T02:10:37.141Z,5.00
2023-04-01T02:13:10.753Z,1.75
2023-04-01T02:15:46.122Z,2.08
2023-04-01T02:18:16.731Z,2.15
2023-04-01T02:20:47.639Z,1.83
2023-04-01T02:23:20.899Z,1.33
2023-04-01T02:25:52.375Z,1.95
2023-04-01T02:28:23.651Z,1.95
2023-04-01T02:33:24.477Z,2.80
2023-04-01T02:35:55.050Z,2.88
2023-04-01T02:38:28.068Z,2.03
2023-04-01T02:41:02.141Z,3.67
2023-04-01T02:43:32.656Z,3.80
2023-04-01T02:46:03.069Z,3.88
2023-04-01T02:48:33.420Z,4.90
2023-04-01T02:51:03.811Z,3.95
2023-04-01T02:53:36.719Z,3.47
2023-04-01T02:56:07.223Z,3.83
2023-04-01T02:58:37.546Z,3.20
2023-04-01T03:01:09.474Z,2.95
2023-04-01T03:03:39.907Z,4.82
2023-04-01T03:06:10.735Z,3.95
2023-04-01T03:08:43.712Z,2.58
2023-04-01T03:11:14.286Z,3.13
2023-04-01T03:13:44.588Z,3.83
2023-04-01T03:16:14.993Z,3.50
2023-04-01T03:18:45.371Z,4.28
2023-04-01T03:21:19.553Z,3.28
2023-04-01T03:23:52.529Z,3.45
2023-04-01T03:26:23.082Z,2.78
2023-04-01T03:28:53.384Z,2.72
2023-04-01T03:31:23.944Z,2.47
2023-04-01T03:33:54.370Z,2.75
2023-04-01T03:36:24.952Z,1.90
2023-04-01T03:38:57.990Z,2.25
2023-04-01T03:41:28.941Z,2.20
2023-04-01T03:43:59.245Z,3.08
2023-04-01T03:46:29.679Z,2.85
2023-04-01T03:49:00.103Z,3.25
2023-04-01T03:51:30.595Z,3.15
2023-04-01T03:54:03.510Z,3.65
2023-04-01T03:56:33.909Z,3.15
2023-04-01T03:59:07.124Z,3.53
2023-04-01T04:01:37.881Z,3.00
2023-04-01T04:04:08.627Z,3.00
2023-04-01T04:06:39.017Z,4.05
2023-04-01T04:09:12.062Z,4.57
2023-04-01T04:11:42.405Z,5.80
2023-04-01T04:14:12.711Z,2.85
2023-04-01T04:16:43.023Z,2.83
2023-04-01T04:19:13.512Z,2.55
2023-04-01T04:21:44.280Z,1.75
2023-04-01T04:24:17.233Z,2.10
2023-04-01T04:26:47.578Z,1.80
2023-04-01T04:29:17.888Z,2.65
2023-04-01T04:31:48.277Z,2.30
2023-04-01T04:34:19.590Z,2.05
2023-04-01T04:39:22.573Z,1.88
2023-04-01T04:41:53.128Z,2.90
2023-04-01T04:44:23.480Z,1.92
2023-04-01T04:46:54.796Z,2.17
2023-04-01T04:49:25.850Z,2.25
2023-04-01T04:51:56.605Z,2.08
2023-04-01T04:54:29.584Z,2.28
2023-04-01T04:56:59.991Z,2.33
2023-04-01T04:59:30.406Z,2.08
2023-04-01T05:02:03.655Z,1.65
2023-04-01T05:04:34.060Z,1.90
2023-04-01T05:07:04.401Z,1.65
2023-04-01T05:09:37.462Z,2.10
2023-04-01T05:12:08.051Z,3.58
2023-04-01T05:14:42.073Z,1.33
2023-04-01T05:17:16.789Z,1.50
2023-04-01T05:19:47.072Z,1.58
2023-04-01T05:22:17.392Z,1.65
2023-04-01T05:24:50.428Z,2.03
2023-04-01T05:27:20.863Z,2.00
2023-04-01T05:29:51.224Z,2.10
2023-04-01T05:32:21.581Z,1.90
2023-04-01T05:34:54.892Z,2.38
2023-04-01T05:37:25.221Z,2.75
2023-04-01T05:39:59.819Z,2.97
2023-04-01T05:42:30.222Z,3.22
2023-04-01T05:45:00.542Z,2.70
2023-04-01T05:47:31.055Z,2.60
2023-04-01T05:50:01.474Z,3.00
2023-04-01T05:52:31.891Z,2.83
2023-04-01T05:55:04.832Z,2.85
2023-04-01T05:57:35.288Z,2.97
2023-04-01T06:00:05.701Z,2.85
2023-04-01T06:02:36.227Z,2.97
2023-04-01T06:05:14.300Z,2.85
2023-04-01T06:07:44.651Z,2.45
2023-04-01T06:10:19.424Z,2.35
2023-04-01T06:12:56.620Z,3.22
2023-04-01T06:15:32.811Z,3.70
2023-04-01T06:18:18.197Z,2.38
2023-04-01T06:20:54.913Z,2.53
2023-04-01T06:23:31.444Z,2.28
2023-04-01T06:26:17.515Z,2.75
2023-04-01T06:28:59.733Z,2.38
2023-04-01T06:31:35.624Z,2.80
2023-04-01T06:34:13.499Z,2.95
2023-04-01T06:37:01.563Z,2.65
2023-04-01T06:39:37.418Z,2.17
2023-04-01T06:42:15.153Z,2.15
2023-04-01T06:47:23.369Z,1.55
2023-04-01T06:49:57.771Z,2.15
2023-04-01T06:52:31.405Z,1.88
2023-04-01T06:55:05.171Z,2.88
2023-04-01T06:57:43.615Z,2.75
2023-04-01T07:00:18.079Z,2.55
2023-04-01T07:02:54.907Z,3.47
2023-04-01T07:05:25.724Z,3.58
2023-04-01T07:07:58.545Z,3.33
2023-04-01T07:10:32.666Z,3.47
2023-04-01T07:13:07.151Z,3.25
2023-04-01T07:15:40.278Z,2.60
2023-04-01T07:18:15.588Z,2.67
2023-04-01T07:20:45.970Z,2.80
2023-04-01T07:23:21.394Z,2.38
2023-04-01T07:25:52.878Z,2.53
2023-04-01T07:28:26.191Z,1.98
2023-04-01T07:31:02.500Z,1.65
2023-04-01T07:33:38.147Z,2.70
2023-04-01T07:36:14.924Z,1.55
2023-04-01T07:38:52.040Z,1.77
2023-04-01T07:41:27.622Z,1.67
2023-04-01T07:44:05.211Z,1.45
2023-04-01T07:46:51.466Z,2.08
2023-04-01T07:49:26.285Z,2.47
2023-04-01T07:52:01.742Z,2.60
2023-04-01T07:54:36.329Z,2.60
2023-04-01T07:57:08.358Z,2.22
2023-04-01T07:59:44.344Z,2.17
2023-04-01T08:02:19.701Z,2.20
2023-04-01T08:05:00.717Z,2.42
2023-04-01T08:07:35.085Z,1.58
2023-04-01T08:10:09.976Z,2.25
2023-04-01T08:12:43.761Z,1.45
2023-04-01T08:15:22.593Z,2.00
2023-04-01T08:17:59.093Z,2.20
2023-04-01T08:20:32.796Z,2.60
2023-04-01T08:23:05.374Z,2.60
2023-04-01T08:25:37.346Z,2.55
2023-04-01T08:28:14.539Z,3.63
2023-04-01T08:30:49.676Z,3.30
2023-04-01T08:33:22.007Z,3.63
2023-04-01T08:35:55.069Z,3.50
2023-04-01T08:38:28.364Z,3.42
2023-04-01T08:41:05.974Z,3.08
2023-04-01T08:43:52.419Z,2.80
2023-04-01T08:46:39.637Z,2.47
2023-04-01T08:49:14.952Z,2.75
2023-04-01T08:51:57.106Z,1.65
2023-04-01T08:54:34.853Z,1.70
2023-04-01T08:59:42.785Z,1.83
2023-04-01T09:04:56.362Z,1.27
2023-04-01T09:07:34.186Z,1.40
2023-04-01T09:10:22.130Z,1.73
2023-04-01T09:12:56.518Z,1.33
2023-04-01T09:15:41.960Z,1.27
2023-04-01T09:18:33.298Z,1.20
2023-04-01T09:21:19.366Z,1.40
2023-04-01T09:23:58.253Z,1.30
2023-04-01T09:26:38.564Z,1.08
2023-04-01T09:29:14.969Z,1.67
2023-04-01T09:32:07.224Z,1.23
2023-04-01T09:34:55.447Z,0.95
2023-04-01T09:37:34.442Z,0.90
2023-04-01T09:40:14.138Z,1.70
2023-04-01T09:42:47.763Z,1.48
2023-04-01T09:45:32.926Z,1.88
2023-04-01T09:48:10.930Z,1.90
2023-04-01T09:50:46.253Z,1.17
2023-04-01T09:53:33.088Z,1.35
2023-04-01T09:56:24.073Z,1.58
2023-04-01T09:59:21.280Z,2.13
2023-04-01T10:02:03.516Z,2.13
2023-04-01T10:04:57.882Z,1.92
2023-04-01T10:07:48.451Z,2.38
2023-04-01T10:10:39.502Z,2.10
2023-04-01T10:13:31.486Z,1.73
2023-04-01T10:16:24.614Z,1.63
2023-04-01T10:19:10.115Z,1.75
2023-04-01T10:21:55.238Z,1.65
2023-04-01T10:24:32.954Z,0.98
2023-04-01T10:29:48.081Z,1.25
2023-04-01T10:32:33.430Z,2.85
2023-04-01T10:35:27.431Z,1.75
2023-04-01T10:38:18.356Z,1.42
2023-04-01T10:41:02.673Z,1.48
2023-04-01T10:46:11.544Z,1.55
2023-04-01T10:49:04.740Z,1.15
2023-04-01T10:51:52.902Z,1.85
2023-04-01T10:54:25.946Z,1.05
2023-04-01T10:57:07.298Z,1.50
2023-04-01T10:59:52.651Z,1.92
2023-04-01T11:02:38.116Z,1.45
2023-04-01T11:05:38.423Z,1.35
2023-04-01T11:08:21.324Z,0.95
2023-04-01T11:11:14.032Z,1.73
2023-04-01T11:13:56.331Z,1.48
2023-04-01T11:16:36.119Z,1.95
2023-04-01T11:19:27.155Z,1.45
2023-04-01T11:24:47.230Z,2.10
2023-04-01T11:27:25.099Z,2.97
2023-04-01T11:30:07.110Z,2.22
2023-04-01T11:32:55.101Z,2.53
2023-04-01T11:35:31.872Z,1.20
2023-04-01T11:38:09.260Z,2.13
2023-04-01T11:40:42.241Z,1.45
2023-04-01T11:43:26.204Z,1.67
2023-04-01T11:46:09.680Z,1.02
2023-04-01T11:48:50.246Z,1.20
2023-04-01T11:51:27.425Z,1.17
2023-04-01T11:54:01.490Z,0.70
2023-04-01T11:56:44.380Z,1.02
2023-04-01T11:59:29.691Z,0.77
2023-04-01T12:02:06.061Z,1.30
2023-04-01T12:04:56.303Z,1.17
2023-04-01T12:07:32.226Z,0.57
2023-04-01T12:10:07.280Z,0.68
2023-04-01T12:12:47.744Z,1.20
2023-04-01T12:15:28.612Z,1.48
2023-04-01T12:18:05.199Z,1.40
2023-04-01T12:20:42.788Z,2.25
2023-04-01T12:23:23.491Z,1.35
2023-04-01T12:26:14.226Z,1.17
2023-04-01T12:28:48.850Z,1.60
2023-04-01T12:31:25.097Z,1.63
2023-04-01T12:34:07.779Z,1.85
2023-04-01T12:36:42.644Z,1.25
2023-04-01T12:39:22.972Z,1.00
2023-04-01T12:41:57.401Z,2.00
2023-04-01T12:44:38.788Z,1.63
2023-04-01T12:47:26.859Z,1.40
2023-04-01T12:50:07.280Z,1.00
2023-04-01T12:52:46.207Z,1.15
2023-04-01T12:55:37.342Z,0.93
2023-04-01T12:58:25.226Z,0.95
2023-04-01T13:01:06.753Z,1.55
2023-04-01T13:03:48.881Z,1.02
2023-04-01T13:06:34.816Z,1.58
2023-04-01T13:09:18.180Z,1.40
2023-04-01T13:11:53.484Z,1.05
2023-04-01T13:14:44.661Z,1.20
2023-04-01T13:17:18.735Z,0.75
2023-04-01T13:20:04.196Z,1.40
2023-04-01T13:22:38.536Z,0.88
2023-04-01T13:25:15.599Z,1.27
2023-04-01T13:27:48.649Z,1.17
2023-04-01T13:30:25.136Z,0.95
2023-04-01T13:33:01.739Z,0.90
2023-04-01T13:35:39.689Z,1.35
2023-04-01T13:38:24.795Z,1.23
2023-04-01T13:41:04.165Z,1.70
2023-04-01T13:43:36.473Z,1.05
2023-04-01T13:46:24.514Z,0.85
2023-04-01T13:49:12.750Z,1.27
2023-04-01T13:51:54.360Z,0.93
2023-04-01T13:54:42.529Z,1.67
2023-04-01T13:57:28.725Z,1.15
2023-04-01T14:00:16.746Z,0.88
2023-04-01T14:02:56.277Z,1.55
2023-04-01T14:05:47.679Z,1.50
2023-04-01T14:08:25.238Z,1.30
2023-04-01T14:10:59.606Z,1.38
2023-04-01T14:13:37.757Z,1.67
2023-04-01T14:16:13.162Z,0.90
2023-04-01T14:18:55.207Z,0.73
2023-04-01T14:21:28.749Z,0.98
2023-04-01T14:24:12.728Z,1.58
2023-04-01T14:26:58.019Z,1.63
2023-04-01T14:29:34.828Z,1.55
2023-04-01T14:32:10.257Z,1.30
2023-04-01T14:34:48.065Z,0.93
2023-04-01T14:40:03.288Z,1.40
2023-04-01T14:42:46.348Z,1.00
2023-04-01T14:45:41.876Z,1.17
2023-04-01T14:48:18.674Z,0.98
2023-04-01T14:50:52.064Z,0.52
2023-04-01T14:53:31.177Z,1.35
2023-04-01T14:56:04.135Z,0.70
2023-04-01T14:58:45.332Z,1.10
2023-04-01T15:01:28.999Z,1.15
2023-04-01T15:04:04.725Z,1.20
2023-04-01T15:06:44.549Z,1.27
2023-04-01T15:09:22.125Z,1.30
2023-04-01T15:11:56.882Z,1.20
2023-04-01T15:14:33.991Z,1.17
2023-04-01T15:17:11.283Z,0.93
2023-04-01T15:19:47.647Z,0.85
2023-04-01T15:22:30.717Z,1.73
2023-04-01T15:25:09.437Z,0.77
2023-04-01T15:27:46.966Z,0.65
2023-04-01T15:30:29.136Z,0.57
2023-04-01T15:33:09.066Z,1.30
2023-04-01T15:35:44.281Z,0.75
2023-04-01T15:38:22.759Z,0.57
2023-04-01T15:40:58.460Z,0.60
2023-04-01T15:43:33.611Z,0.80
2023-04-01T15:46:14.368Z,0.90
2023-04-01T15:48:51.253Z,0.68
2023-04-01T15:51:28.821Z,0.40
2023-04-01T15:54:13.504Z,1.05
2023-04-01T15:56:49.664Z,0.70
2023-04-01T15:59:25.493Z,1.70
2023-04-01T16:02:02.216Z,0.70
2023-04-01T16:04:44.044Z,1.55
2023-04-01T16:07:20.921Z,2.40
2023-04-01T16:09:59.381Z,1.05
2023-04-01T16:12:39.090Z,1.27
2023-04-01T16:15:18.641Z,1.65
2023-04-01T16:18:03.728Z,1.52
2023-04-01T16:20:45.687Z,1.80
2023-04-01T16:23:18.620Z,1.77
2023-04-01T16:25:51.207Z,2.17
2023-04-01T16:28:25.247Z,2.92
2023-04-01T16:31:02.004Z,2.92
2023-04-01T16:33:36.648Z,3.05
2023-04-01T16:36:14.679Z,2.50
2023-04-01T16:38:47.746Z,3.42
2023-04-01T16:41:21.346Z,2.65
2023-04-01T16:43:55.714Z,2.75
2023-04-01T16:46:41.930Z,2.40
2023-04-01T16:49:21.366Z,1.90
2023-04-01T16:51:58.905Z,2.20
2023-04-01T16:54:33.082Z,2.22
2023-04-01T16:57:07.671Z,3.05
2023-04-01T16:59:40.268Z,3.13
2023-04-01T17:02:15.375Z,2.13
2023-04-01T17:04:48.190Z,1.50
2023-04-01T17:07:26.668Z,1.98
2023-04-01T17:10:03.758Z,2.33
2023-04-01T17:12:38.256Z,3.03
2023-04-01T17:15:15.905Z,2.28
2023-04-01T17:17:50.193Z,2.90
2023-04-01T17:20:37.958Z,4.78
2023-04-01T17:23:17.330Z,3.13
2023-04-01T17:25:56.058Z,3.50
2023-04-01T17:28:35.863Z,3.22
2023-04-01T17:31:09.448Z,3.70
2023-04-01T17:33:59.570Z,3.80
2023-04-01T17:36:36.710Z,3.30
2023-04-01T17:39:19.582Z,3.60
2023-04-01T17:41:53.013Z,4.68
2023-04-01T17:44:30.852Z,4.85
2023-04-01T17:47:11.385Z,4.78
2023-04-01T17:49:46.729Z,5.07
2023-04-01T17:52:21.745Z,4.97
2023-04-01T17:54:59.240Z,4.05
2023-04-01T17:57:38.929Z,4.20
2023-04-01T18:00:21.349Z,4.65
2023-04-01T18:02:59.390Z,4.03
2023-04-01T18:05:35.429Z,4.32
2023-04-01T18:08:15.896Z,4.88
2023-04-01T18:10:53.989Z,3.90
2023-04-01T18:13:39.198Z,3.25
2023-04-01T18:16:21.213Z,3.97
2023-04-01T18:18:54.917Z,3.88
2023-04-01T18:21:30.334Z,4.20
2023-04-01T18:24:03.015Z,4.47
2023-04-01T18:26:38.291Z,4.35
2023-04-01T18:29:15.936Z,3.88
2023-04-01T18:31:48.758Z,4.68
2023-04-01T18:34:22.636Z,4.32
2023-04-01T18:36:56.310Z,4.22
2023-04-01T18:39:29.736Z,4.90
2023-04-01T18:42:06.893Z,5.97
2023-04-01T18:47:12.233Z,5.88
2023-04-01T18:49:46.644Z,5.93
2023-04-01T18:52:20.537Z,6.63
2023-04-01T18:54:54.867Z,6.70
2023-04-01T18:57:28.067Z,6.75
2023-04-01T19:00:01.322Z,6.82
2023-04-01T19:02:34.239Z,7.63
2023-04-01T19:05:07.020Z,8.57
2023-04-01T19:07:48.175Z,9.10
2023-04-01T19:10:20.332Z,8.55
2023-04-01T19:13:00.225Z,9.52
2023-04-01T19:15:39.060Z,9.98
2023-04-01T19:18:24.409Z,8.75
2023-04-01T19:20:58.643Z,7.93
2023-04-01T19:23:46.575Z,9.30
2023-04-01T19:26:19.296Z,9.73
2023-04-01T19:28:55.224Z,9.82
2023-04-01T19:31:34.225Z,10.05
2023-04-01T19:34:12.053Z,9.15
2023-04-01T19:39:30.163Z,9.13
2023-04-01T19:42:03.934Z,9.70
2023-04-01T19:44:43.207Z,9.25
2023-04-01T19:47:20.166Z,9.80
2023-04-01T19:49:56.252Z,8.90
2023-04-01T19:52:28.769Z,9.65
2023-04-01T19:55:02.812Z,9.88
2023-04-01T19:57:38.161Z,9.32
2023-04-01T20:00:20.200Z,8.05
2023-04-01T20:02:58.581Z,5.82
2023-04-01T20:05:49.791Z,6.65
2023-04-01T20:08:23.128Z,5.22
2023-04-01T20:10:58.360Z,4.93
2023-04-01T20:13:32.999Z,5.45
2023-04-01T20:16:07.618Z,7.38
2023-04-01T20:18:41.917Z,4.78
2023-04-01T20:21:23.072Z,5.05
2023-04-01T20:23:57.103Z,4.63
2023-04-01T20:26:29.869Z,5.40
2023-04-01T20:29:12.038Z,6.10
2023-04-01T20:31:46.587Z,5.25
2023-04-01T20:34:27.000Z,5.78
2023-04-01T20:37:06.512Z,4.78
2023-04-01T20:39:43.494Z,5.00
2023-04-01T20:42:25.789Z,4.72
2023-04-01T20:44:59.544Z,4.57
2023-04-01T20:47:39.969Z,3.80
2023-04-01T20:50:19.885Z,5.13
2023-04-01T20:52:54.447Z,4.18
2023-04-01T20:55:32.423Z,4.35
2023-04-01T20:58:08.651Z,4.22
2023-04-01T21:00:42.162Z,4.50
2023-04-01T21:03:26.180Z,5.50
2023-04-01T21:06:04.423Z,4.63
2023-04-01T21:08:41.130Z,4.40
2023-04-01T21:11:16.979Z,4.97
2023-04-01T21:13:54.872Z,4.93
2023-04-01T21:16:31.744Z,6.25
2023-04-01T21:19:08.989Z,6.10
2023-04-01T21:21:53.491Z,10.93
2023-04-01T21:24:39.398Z,6.20
2023-04-01T21:27:14.120Z,6.60
2023-04-01T21:29:57.948Z,6.15
2023-04-01T21:32:45.566Z,5.93
2023-04-01T21:35:25.876Z,8.48
2023-04-01T21:38:03.473Z,8.57
2023-04-01T21:40:47.372Z,7.97
2023-04-01T21:43:23.441Z,6.60
2023-04-01T21:46:10.821Z,9.07
2023-04-01T21:49:02.404Z,7.22
2023-04-01T21:51:56.085Z,8.13
2023-04-01T21:54:44.489Z,6.32
2023-04-01T21:57:37.211Z,7.32
2023-04-01T22:00:28.901Z,6.40
2023-04-01T22:03:24.311Z,6.85
2023-04-01T22:06:00.663Z,6.95
2023-04-01T22:08:43.056Z,5.57
2023-04-01T22:11:18.180Z,5.68
2023-04-01T22:13:53.146Z,6.95
2023-04-01T22:16:29.479Z,7.13
2023-04-01T22:19:04.582Z,6.88
2023-04-01T22:21:39.491Z,9.75
2023-04-01T22:24:16.145Z,8.85
2023-04-01T22:26:48.877Z,8.52
2023-04-01T22:29:22.426Z,8.27
2023-04-01T22:31:54.662Z,7.90
2023-04-01T22:34:31.542Z,9.00
2023-04-01T22:37:04.860Z,6.15
2023-04-01T22:39:43.413Z,8.00
2023-04-01T22:42:19.806Z,7.25
2023-04-01T22:44:56.583Z,7.85
2023-04-01T22:47:29.883Z,7.20
2023-04-01T22:50:04.865Z,7.35
2023-04-01T22:52:37.983Z,7.28
2023-04-01T22:55:15.371Z,4.75
2023-04-01T22:57:49.566Z,6.63
2023-04-01T23:00:22.741Z,5.70
2023-04-01T23:03:05.394Z,7.32
2023-04-01T23:05:36.987Z,7.80
2023-04-01T23:08:11.832Z,6.70
2023-04-01T23:10:47.632Z,4.88
2023-04-01T23:13:20.947Z,6.82
2023-04-01T23:15:51.404Z,5.10
2023-04-01T23:18:25.794Z,5.40
2023-04-01T23:21:07.698Z,7.22
2023-04-01T23:23:46.514Z,8.30
2023-04-01T23:26:22.886Z,6.63
2023-04-01T23:28:54.439Z,5.90
2023-04-01T23:31:35.995Z,7.50
2023-04-01T23:34:07.485Z,4.63
2023-04-01T23:36:42.247Z,6.38
2023-04-01T23:39:18.223Z,5.65
2023-04-01T23:41:51.302Z,6.05
2023-04-01T23:44:21.622Z,6.28
2023-04-01T23:46:52.690Z,5.65
2023-04-01T23:49:25.742Z,6.60
2023-04-01T23:51:58.648Z,6.45
2023-04-01T23:54:34.220Z,4.63
2023-04-01T23:57:09.735Z,6.32
2023-04-01T23:59:40.963Z,6.13
